Florida Logo

Hawthorne, FL Single Family Real Estate Listings

49 Total Real Estate Listings * Click on table heading to sort
Date Posted Property Type Style Address Price Living Area Lot Size Price/Sq Ft.
2018-11-26 Single Family 18225 145 Hawthorne, FL 32640 $114,900 880 sq. ft. 5,227 sq. ft. $131
2018-10-08 Single Family 6611 219th Terrace Hawthorne, FL 32640 $189,900 2,074 sq. ft. 10,890 sq. ft. $92
2018-09-06 Single Family 22814 65th Hawthorne, FL 32640 $144,900 2,060 sq. ft. 43,560 sq. ft. $70
2018-07-09 Single Family 18221 County Road 1474 Hawthorne, FL 32640 $290,000 3,648 sq. ft. 241,322 sq. ft. $80
2018-07-04 Single Family 106 Arrowhead Point Hawthorne, FL 32640 $134,950 1,620 sq. ft. 148,540 sq. ft. $83
2018-05-23 Single Family 186 Indian Lakes Hawthorne, FL 32640 $249,000 3,142 sq. ft. 47,916 sq. ft. $79
2018-04-13 Single Family 150 Cowpen Lake Hawthorne, FL 32640 $49,900 735 sq. ft. 90,169 sq. ft. $68
2018-02-17 Single Family 16105 225th Hawthorne, FL 32640 $159,900 2,388 sq. ft. 330,185 sq. ft. $67
2017-12-29 Single Family 168 Hour Glass Hawthorne, FL 32640 $289,000 3,003 sq. ft. 117,612 sq. ft. $96
2017-11-03 Single Family 7908 246th Hawthorne, FL 32640 $269,725 2,176 sq. ft. 43,560 sq. ft. $124
2016-08-11 Single Family Traditional 144 Ashley St Hawthorne, FL 32640 $49,900 1,056 sq. ft. $47
2016-08-10 Single Family 9023 225th Dr Hawthorne, FL 32640 $83,200 1,146 sq. ft. 200,812 sq. ft. $73
2016-08-04 Single Family Traditional 121 Lake Vause Trl Hawthorne, FL 32640 $91,500 1,140 sq. ft. $80
2016-08-04 Single Family 112 Birchdale Trl Hawthorne, FL 32640 $79,900 1,485 sq. ft. $54
2016-07-23 Single Family Ranch 125 Dixie St Hawthorne, FL 32640 $68,000 1,008 sq. ft. $67
2016-07-08 Single Family Ranch 114 Betty Allen Ln Hawthorne, FL 32640 $60,000 960 sq. ft. $62
2016-06-24 Single Family Traditional 128 Skinner Ct Hawthorne, FL 32640 $199,900 1,640 sq. ft. $122
2016-06-23 Single Family Ranch 129 Perry Rd Hawthorne, FL 32640 $53,000 924 sq. ft. $57
2016-06-21 Single Family Traditional 500 Lake Susan Rd Hawthorne, FL 32640 $329,000 2,005 sq. ft. $164
2016-06-16 Single Family 592 Higginbotham Lake Rd Hawthorne, FL 32640 $69,900 672 sq. ft. $104
2016-06-13 Single Family 20914 24th Ave Hawthorne, FL 32640 $189,900 2,487 sq. ft. $76
2016-05-17 Single Family 111 Ashley St Hawthorne, FL 32640 $64,900 1,152 sq. ft. $56
2016-04-23 Single Family 279 Ash St Hawthorne, FL 32640 $119,000 2,100 sq. ft. $57
2016-04-21 Single Family 119 Ashley St Hawthorne, FL 32640 $69,900 989 sq. ft. 40,946 sq. ft. $71
2016-04-21 Single Family 117 Ashley St Hawthorne, FL 32640 $79,900 1,196 sq. ft. 40,946 sq. ft. $67
2016-04-15 Single Family Traditional 11119 225th Dr Hawthorne, FL 32640 $165,500 2,040 sq. ft. $81
2016-04-14 Single Family Traditional 208 Magnolia Rd Hawthorne, FL 32640 $55,000 1,462 sq. ft. $38
2016-04-09 Single Family Contemporary 5815 County Rd 325 Hawthorne, FL 32640 $58,000 1,456 sq. ft. $40
2016-04-04 Single Family 130 Ash St Hawthorne, FL 32640 $67,900 1,596 sq. ft. $43
2016-03-30 Single Family Ranch 150 Spooner Dr Hawthorne, FL 32640 $230,000 1,940 sq. ft. $119
2016-03-27 Single Family 181 She She Rd Hawthorne, FL 32640 $27,000 1,344 sq. ft. $20
2016-03-15 Single Family Traditional 16620 207th St Hawthorne, FL 32640 $285,000 1,064 sq. ft. $268
2016-02-23 Single Family Traditional 875 County Rd 21 Hawthorne, FL 32640 $144,900 1,025 sq. ft. $141
2016-02-21 Single Family Contemporary 150 Whirlwind Loop Hawthorne, FL 32640 $219,000 1,722 sq. ft. $127
2016-02-11 Single Family Log Home 128 Bentley Dr Hawthorne, FL 32640 $392,000 3,692 sq. ft. 409,028 sq. ft. $106
2016-02-03 Single Family Ranch 178 Little Orange Rd Hawthorne, FL 32640 $124,900 1,404 sq. ft. $89
2016-01-26 Single Family 127 Ann St Hawthorne, FL 32640 $62,500 1,904 sq. ft. $33
2016-01-08 Single Family 101 Star Lake Dr Hawthorne, FL 32640 $499,000 2,037 sq. ft. 558,004 sq. ft. $245
2016-01-06 Single Family 104 Slater Ln Hawthorne, FL 32640 $8,995 682 sq. ft. $13
2015-11-20 Single Family 114 Medlock Ln Hawthorne, FL 32640 $499,900 2,284 sq. ft. 472,626 sq. ft. $219
2015-10-23 Single Family Ranch 100 Cypress St Hawthorne, FL 32640 $229,000 1,251 sq. ft. $183
2015-10-16 Single Family Contemporary 168 Hour Glass Cir Hawthorne, FL 32640 $309,000 2,154 sq. ft. $143
2015-09-13 Single Family Traditional 15232 Us Highway 301 Hawthorne, FL 32640 $123,900 1,280 sq. ft. $97
2015-09-09 Single Family Ranch 144 Lake Winnott Rd Hawthorne, FL 32640 $299,000 1,651 sq. ft. $181
2015-08-04 Single Family Bungalow; Traditional 158 Morris Lake Dr Hawthorne, FL 32640 $133,900 1,512 sq. ft. $89
2015-07-04 Single Family 268 Cue Lake Dr Hawthorne, FL 32640 $289,000 2,086 sq. ft. 105,851 sq. ft. $139
2015-01-14 Single Family Traditional 22218 61st Ave Hawthorne, FL 32640 $79,000 1,072 sq. ft. $74
2015-01-14 Single Family Traditional 22204 61st Ave Hawthorne, FL 32640 $64,000 976 sq. ft. $66
2014-08-14 Single Family Traditional 176 Melrose Landing Dr Hawthorne, FL 32640 $71,900 1,216 sq. ft. $59